sensor_id;sensor_type;location;lat;lon;timestamp;P1;durP1;ratioP1;P2;durP2;ratioP2
33862;SDS011;20158;51.436;-2.742;2024-01-15T00:01:31;1.23;;;0.70;;
33862;SDS011;20158;51.436;-2.742;2024-01-15T00:03:57;1.55;;;0.85;;
33862;SDS011;20158;51.436;-2.742;2024-01-15T00:06:23;1.00;;;0.47;;
33862;SDS011;20158;51.436;-2.742;2024-01-15T00:08:49;0.90;;;0.60;;
33862;SDS011;20158;51.436;-2.742;2024-01-15T00:11:15;1.13;;;0.55;;
33862;SDS011;20158;51.436;-2.742;2024-01-15T00:13:42;0.82;;;0.70;;
33862;SDS011;20158;51.436;-2.742;2024-01-15T00:16:09;2.05;;;0.73;;
33862;SDS011;20158;51.436;-2.742;2024-01-15T00:18:35;2.97;;;0.98;;
33862;SDS011;20158;51.436;-2.742;2024-01-15T00:21:01;1.50;;;0.63;;
33862;SDS011;20158;51.436;-2.742;2024-01-15T00:23:28;0.90;;;0.60;;
33862;SDS011;20158;51.436;-2.742;2024-01-15T00:25:54;1.70;;;0.60;;
33862;SDS011;20158;51.436;-2.742;2024-01-15T00:28:20;0.90;;;0.63;;
33862;SDS011;20158;51.436;-2.742;2024-01-15T00:30:46;1.75;;;0.73;;
33862;SDS011;20158;51.436;-2.742;2024-01-15T00:33:12;1.25;;;0.70;;
33862;SDS011;20158;51.436;-2.742;2024-01-15T00:35:40;2.33;;;0.57;;
33862;SDS011;20158;51.436;-2.742;2024-01-15T00:38:07;2.10;;;0.60;;
33862;SDS011;20158;51.436;-2.742;2024-01-15T00:40:33;1.13;;;0.60;;
33862;SDS011;20158;51.436;-2.742;2024-01-15T00:42:59;0.93;;;0.57;;
33862;SDS011;20158;51.436;-2.742;2024-01-15T00:45:25;0.73;;;0.52;;
33862;SDS011;20158;51.436;-2.742;2024-01-15T00:47:51;3.35;;;0.63;;
33862;SDS011;20158;51.436;-2.742;2024-01-15T00:50:18;1.20;;;0.43;;
33862;SDS011;20158;51.436;-2.742;2024-01-15T00:52:44;0.85;;;0.47;;
33862;SDS011;20158;51.436;-2.742;2024-01-15T00:55:10;1.88;;;0.80;;
33862;SDS011;20158;51.436;-2.742;2024-01-15T00:57:40;1.40;;;0.50;;
33862;SDS011;20158;51.436;-2.742;2024-01-15T01:00:06;1.67;;;0.60;;
33862;SDS011;20158;51.436;-2.742;2024-01-15T01:02:32;3.25;;;0.70;;
33862;SDS011;20158;51.436;-2.742;2024-01-15T01:04:58;2.28;;;0.88;;
33862;SDS011;20158;51.436;-2.742;2024-01-15T01:07:24;1.33;;;0.50;;
33862;SDS011;20158;51.436;-2.742;2024-01-15T01:09:50;1.10;;;0.60;;
33862;SDS011;20158;51.436;-2.742;2024-01-15T01:12:16;2.00;;;0.70;;
33862;SDS011;20158;51.436;-2.742;2024-01-15T01:14:42;1.58;;;0.52;;
33862;SDS011;20158;51.436;-2.742;2024-01-15T01:17:08;2.95;;;0.80;;
33862;SDS011;20158;51.436;-2.742;2024-01-15T01:19:34;0.85;;;0.75;;
33862;SDS011;20158;51.436;-2.742;2024-01-15T01:22:00;1.50;;;0.50;;
33862;SDS011;20158;51.436;-2.742;2024-01-15T01:24:26;0.90;;;0.73;;
33862;SDS011;20158;51.436;-2.742;2024-01-15T01:26:52;1.88;;;0.70;;
33862;SDS011;20158;51.436;-2.742;2024-01-15T01:29:18;2.97;;;1.30;;
33862;SDS011;20158;51.436;-2.742;2024-01-15T01:31:44;1.25;;;0.90;;
33862;SDS011;20158;51.436;-2.742;2024-01-15T01:34:13;1.02;;;0.95;;
33862;SDS011;20158;51.436;-2.742;2024-01-15T01:36:40;1.52;;;1.02;;
33862;SDS011;20158;51.436;-2.742;2024-01-15T01:39:07;1.35;;;1.00;;
33862;SDS011;20158;51.436;-2.742;2024-01-15T01:41:34;2.17;;;1.08;;
33862;SDS011;20158;51.436;-2.742;2024-01-15T01:44:00;2.75;;;1.20;;
33862;SDS011;20158;51.436;-2.742;2024-01-15T01:46:27;1.05;;;0.82;;
33862;SDS011;20158;51.436;-2.742;2024-01-15T01:48:55;1.27;;;0.88;;
33862;SDS011;20158;51.436;-2.742;2024-01-15T01:51:24;2.33;;;1.10;;
33862;SDS011;20158;51.436;-2.742;2024-01-15T01:53:50;2.42;;;0.85;;
33862;SDS011;20158;51.436;-2.742;2024-01-15T01:56:17;1.48;;;0.88;;
33862;SDS011;20158;51.436;-2.742;2024-01-15T01:58:44;1.02;;;0.80;;
33862;SDS011;20158;51.436;-2.742;2024-01-15T02:01:11;1.15;;;0.88;;
33862;SDS011;20158;51.436;-2.742;2024-01-15T02:03:39;1.05;;;0.90;;
33862;SDS011;20158;51.436;-2.742;2024-01-15T02:06:07;2.65;;;0.90;;
33862;SDS011;20158;51.436;-2.742;2024-01-15T02:08:34;1.52;;;0.98;;
33862;SDS011;20158;51.436;-2.742;2024-01-15T02:11:00;2.38;;;1.00;;
33862;SDS011;20158;51.436;-2.742;2024-01-15T02:13:26;1.20;;;0.98;;
33862;SDS011;20158;51.436;-2.742;2024-01-15T02:15:52;1.33;;;0.88;;
33862;SDS011;20158;51.436;-2.742;2024-01-15T02:18:18;2.13;;;0.68;;
33862;SDS011;20158;51.436;-2.742;2024-01-15T02:20:45;0.73;;;0.60;;
33862;SDS011;20158;51.436;-2.742;2024-01-15T02:23:12;2.00;;;1.08;;
33862;SDS011;20158;51.436;-2.742;2024-01-15T02:25:40;2.63;;;0.80;;
33862;SDS011;20158;51.436;-2.742;2024-01-15T02:28:10;1.77;;;0.90;;
33862;SDS011;20158;51.436;-2.742;2024-01-15T02:30:41;5.00;;;1.02;;
33862;SDS011;20158;51.436;-2.742;2024-01-15T02:33:08;1.50;;;1.00;;
33862;SDS011;20158;51.436;-2.742;2024-01-15T02:35:34;1.15;;;0.68;;
33862;SDS011;20158;51.436;-2.742;2024-01-15T02:38:04;1.90;;;1.02;;
33862;SDS011;20158;51.436;-2.742;2024-01-15T02:40:30;1.17;;;0.70;;
33862;SDS011;20158;51.436;-2.742;2024-01-15T02:42:56;2.75;;;1.33;;
33862;SDS011;20158;51.436;-2.742;2024-01-15T02:45:22;3.33;;;0.90;;
33862;SDS011;20158;51.436;-2.742;2024-01-15T02:47:50;1.15;;;0.80;;
33862;SDS011;20158;51.436;-2.742;2024-01-15T02:50:16;2.53;;;0.77;;
33862;SDS011;20158;51.436;-2.742;2024-01-15T02:52:42;2.25;;;1.20;;
33862;SDS011;20158;51.436;-2.742;2024-01-15T02:55:08;2.20;;;1.10;;
33862;SDS011;20158;51.436;-2.742;2024-01-15T02:57:34;1.20;;;1.10;;
33862;SDS011;20158;51.436;-2.742;2024-01-15T03:00:01;2.22;;;1.20;;
33862;SDS011;20158;51.436;-2.742;2024-01-15T03:02:29;2.95;;;1.20;;
33862;SDS011;20158;51.436;-2.742;2024-01-15T03:04:57;1.23;;;0.75;;
33862;SDS011;20158;51.436;-2.742;2024-01-15T03:07:23;2.60;;;1.00;;
33862;SDS011;20158;51.436;-2.742;2024-01-15T03:09:49;1.88;;;0.88;;
33862;SDS011;20158;51.436;-2.742;2024-01-15T03:12:17;1.55;;;0.90;;
33862;SDS011;20158;51.436;-2.742;2024-01-15T03:14:43;2.50;;;1.20;;
33862;SDS011;20158;51.436;-2.742;2024-01-15T03:17:10;2.28;;;1.05;;
33862;SDS011;20158;51.436;-2.742;2024-01-15T03:19:37;1.95;;;0.80;;
33862;SDS011;20158;51.436;-2.742;2024-01-15T03:22:03;1.35;;;1.10;;
33862;SDS011;20158;51.436;-2.742;2024-01-15T03:24:31;1.55;;;0.90;;
33862;SDS011;20158;51.436;-2.742;2024-01-15T03:26:57;2.60;;;1.08;;
33862;SDS011;20158;51.436;-2.742;2024-01-15T03:29:23;1.38;;;0.90;;
33862;SDS011;20158;51.436;-2.742;2024-01-15T03:31:49;2.78;;;0.85;;
33862;SDS011;20158;51.436;-2.742;2024-01-15T03:34:15;1.15;;;0.95;;
33862;SDS011;20158;51.436;-2.742;2024-01-15T03:36:41;2.38;;;1.20;;
33862;SDS011;20158;51.436;-2.742;2024-01-15T03:39:07;2.33;;;1.00;;
33862;SDS011;20158;51.436;-2.742;2024-01-15T03:41:33;2.22;;;1.40;;
33862;SDS011;20158;51.436;-2.742;2024-01-15T03:43:59;2.03;;;1.02;;
33862;SDS011;20158;51.436;-2.742;2024-01-15T03:46:26;0.98;;;0.82;;
33862;SDS011;20158;51.436;-2.742;2024-01-15T03:48:53;1.88;;;1.00;;
33862;SDS011;20158;51.436;-2.742;2024-01-15T03:51:19;2.30;;;1.02;;
33862;SDS011;20158;51.436;-2.742;2024-01-15T03:53:45;2.42;;;1.00;;
33862;SDS011;20158;51.436;-2.742;2024-01-15T03:56:12;3.22;;;1.20;;
33862;SDS011;20158;51.436;-2.742;2024-01-15T03:58:38;2.85;;;1.30;;
33862;SDS011;20158;51.436;-2.742;2024-01-15T04:01:07;1.25;;;0.90;;
33862;SDS011;20158;51.436;-2.742;2024-01-15T04:03:35;3.08;;;1.08;;
33862;SDS011;20158;51.436;-2.742;2024-01-15T04:06:02;1.52;;;0.90;;
33862;SDS011;20158;51.436;-2.742;2024-01-15T04:08:28;2.47;;;1.40;;
33862;SDS011;20158;51.436;-2.742;2024-01-15T04:10:55;2.60;;;1.10;;
33862;SDS011;20158;51.436;-2.742;2024-01-15T04:13:21;1.95;;;1.40;;
33862;SDS011;20158;51.436;-2.742;2024-01-15T04:15:47;1.27;;;0.90;;
33862;SDS011;20158;51.436;-2.742;2024-01-15T04:18:13;2.08;;;1.30;;
33862;SDS011;20158;51.436;-2.742;2024-01-15T04:20:41;2.22;;;1.13;;
33862;SDS011;20158;51.436;-2.742;2024-01-15T04:23:07;2.72;;;1.30;;
33862;SDS011;20158;51.436;-2.742;2024-01-15T04:25:33;1.77;;;1.05;;
33862;SDS011;20158;51.436;-2.742;2024-01-15T04:27:59;1.38;;;1.10;;
33862;SDS011;20158;51.436;-2.742;2024-01-15T04:30:26;1.77;;;0.88;;
33862;SDS011;20158;51.436;-2.742;2024-01-15T04:32:51;0.80;;;0.80;;
33862;SDS011;20158;51.436;-2.742;2024-01-15T04:35:17;1.35;;;0.80;;
33862;SDS011;20158;51.436;-2.742;2024-01-15T04:37:43;1.73;;;1.10;;
33862;SDS011;20158;51.436;-2.742;2024-01-15T04:40:09;4.10;;;1.02;;
33862;SDS011;20158;51.436;-2.742;2024-01-15T04:42:36;3.00;;;0.80;;
33862;SDS011;20158;51.436;-2.742;2024-01-15T04:45:02;1.23;;;0.75;;
33862;SDS011;20158;51.436;-2.742;2024-01-15T04:47:29;2.10;;;0.90;;
33862;SDS011;20158;51.436;-2.742;2024-01-15T04:49:55;2.08;;;0.85;;
33862;SDS011;20158;51.436;-2.742;2024-01-15T04:52:22;1.38;;;0.80;;
33862;SDS011;20158;51.436;-2.742;2024-01-15T04:54:51;3.78;;;1.10;;
33862;SDS011;20158;51.436;-2.742;2024-01-15T04:57:17;1.17;;;0.80;;
33862;SDS011;20158;51.436;-2.742;2024-01-15T04:59:43;1.15;;;0.90;;
33862;SDS011;20158;51.436;-2.742;2024-01-15T05:02:09;1.98;;;0.82;;
33862;SDS011;20158;51.436;-2.742;2024-01-15T05:04:35;2.47;;;1.00;;
33862;SDS011;20158;51.436;-2.742;2024-01-15T05:07:01;3.50;;;0.77;;
33862;SDS011;20158;51.436;-2.742;2024-01-15T05:09:28;2.95;;;1.10;;
33862;SDS011;20158;51.436;-2.742;2024-01-15T05:11:54;2.03;;;0.73;;
33862;SDS011;20158;51.436;-2.742;2024-01-15T05:14:20;2.35;;;0.68;;
33862;SDS011;20158;51.436;-2.742;2024-01-15T05:16:46;1.73;;;0.80;;
33862;SDS011;20158;51.436;-2.742;2024-01-15T05:19:13;2.45;;;0.90;;
33862;SDS011;20158;51.436;-2.742;2024-01-15T05:21:39;2.00;;;0.77;;
33862;SDS011;20158;51.436;-2.742;2024-01-15T05:24:06;1.20;;;0.75;;
33862;SDS011;20158;51.436;-2.742;2024-01-15T05:26:32;2.90;;;0.98;;
33862;SDS011;20158;51.436;-2.742;2024-01-15T05:28:58;2.78;;;0.68;;
33862;SDS011;20158;51.436;-2.742;2024-01-15T05:31:24;4.97;;;0.90;;
33862;SDS011;20158;51.436;-2.742;2024-01-15T05:33:50;1.27;;;0.57;;
33862;SDS011;20158;51.436;-2.742;2024-01-15T05:36:16;4.68;;;1.45;;
33862;SDS011;20158;51.436;-2.742;2024-01-15T05:38:42;2.22;;;0.88;;
33862;SDS011;20158;51.436;-2.742;2024-01-15T05:41:08;1.20;;;0.77;;
33862;SDS011;20158;51.436;-2.742;2024-01-15T05:43:35;2.15;;;0.60;;
33862;SDS011;20158;51.436;-2.742;2024-01-15T05:46:01;2.50;;;0.70;;
33862;SDS011;20158;51.436;-2.742;2024-01-15T05:48:28;0.77;;;0.60;;
33862;SDS011;20158;51.436;-2.742;2024-01-15T05:50:54;1.05;;;0.50;;
33862;SDS011;20158;51.436;-2.742;2024-01-15T05:53:20;0.90;;;0.70;;
33862;SDS011;20158;51.436;-2.742;2024-01-15T05:55:46;0.80;;;0.73;;
33862;SDS011;20158;51.436;-2.742;2024-01-15T05:58:12;1.10;;;0.60;;
33862;SDS011;20158;51.436;-2.742;2024-01-15T06:00:38;4.25;;;1.38;;
33862;SDS011;20158;51.436;-2.742;2024-01-15T06:03:04;1.42;;;1.33;;
33862;SDS011;20158;51.436;-2.742;2024-01-15T06:05:30;3.53;;;0.80;;
33862;SDS011;20158;51.436;-2.742;2024-01-15T06:07:59;2.30;;;1.15;;
33862;SDS011;20158;51.436;-2.742;2024-01-15T06:10:25;2.30;;;1.05;;
33862;SDS011;20158;51.436;-2.742;2024-01-15T06:12:52;1.90;;;0.98;;
33862;SDS011;20158;51.436;-2.742;2024-01-15T06:15:18;1.15;;;0.75;;
33862;SDS011;20158;51.436;-2.742;2024-01-15T06:17:43;0.88;;;0.60;;
33862;SDS011;20158;51.436;-2.742;2024-01-15T06:20:10;3.60;;;0.90;;
33862;SDS011;20158;51.436;-2.742;2024-01-15T06:22:37;2.25;;;0.90;;
33862;SDS011;20158;51.436;-2.742;2024-01-15T06:25:06;3.72;;;0.98;;
33862;SDS011;20158;51.436;-2.742;2024-01-15T06:27:33;1.40;;;0.70;;
33862;SDS011;20158;51.436;-2.742;2024-01-15T06:29:59;3.28;;;1.13;;
33862;SDS011;20158;51.436;-2.742;2024-01-15T06:32:26;2.95;;;1.48;;
33862;SDS011;20158;51.436;-2.742;2024-01-15T06:34:52;2.50;;;0.80;;
33862;SDS011;20158;51.436;-2.742;2024-01-15T06:37:18;1.92;;;0.98;;
33862;SDS011;20158;51.436;-2.742;2024-01-15T06:39:45;1.67;;;1.02;;
33862;SDS011;20158;51.436;-2.742;2024-01-15T06:42:11;2.10;;;1.00;;
33862;SDS011;20158;51.436;-2.742;2024-01-15T06:44:37;2.50;;;1.10;;
33862;SDS011;20158;51.436;-2.742;2024-01-15T06:47:05;1.05;;;0.90;;
33862;SDS011;20158;51.436;-2.742;2024-01-15T06:49:32;2.80;;;1.48;;
33862;SDS011;20158;51.436;-2.742;2024-01-15T06:51:58;3.83;;;1.42;;
33862;SDS011;20158;51.436;-2.742;2024-01-15T06:54:26;2.05;;;1.05;;
33862;SDS011;20158;51.436;-2.742;2024-01-15T06:56:52;2.80;;;1.20;;
33862;SDS011;20158;51.436;-2.742;2024-01-15T06:59:18;5.70;;;1.38;;
33862;SDS011;20158;51.436;-2.742;2024-01-15T07:01:44;2.20;;;1.15;;
33862;SDS011;20158;51.436;-2.742;2024-01-15T07:04:10;3.45;;;1.20;;
33862;SDS011;20158;51.436;-2.742;2024-01-15T07:06:36;1.70;;;1.10;;
33862;SDS011;20158;51.436;-2.742;2024-01-15T07:09:02;3.42;;;1.15;;
33862;SDS011;20158;51.436;-2.742;2024-01-15T07:11:29;1.00;;;0.90;;
33862;SDS011;20158;51.436;-2.742;2024-01-15T07:13:55;1.70;;;1.00;;
33862;SDS011;20158;51.436;-2.742;2024-01-15T07:16:21;2.67;;;1.33;;
33862;SDS011;20158;51.436;-2.742;2024-01-15T07:18:47;2.03;;;0.90;;
33862;SDS011;20158;51.436;-2.742;2024-01-15T07:21:13;1.95;;;1.10;;
33862;SDS011;20158;51.436;-2.742;2024-01-15T07:23:39;3.83;;;1.10;;
33862;SDS011;20158;51.436;-2.742;2024-01-15T07:26:05;2.08;;;1.27;;
33862;SDS011;20158;51.436;-2.742;2024-01-15T07:28:31;1.35;;;1.15;;
33862;SDS011;20158;51.436;-2.742;2024-01-15T07:30:57;1.65;;;1.20;;
33862;SDS011;20158;51.436;-2.742;2024-01-15T07:33:23;1.50;;;1.10;;
33862;SDS011;20158;51.436;-2.742;2024-01-15T07:35:49;1.20;;;1.10;;
33862;SDS011;20158;51.436;-2.742;2024-01-15T07:38:15;2.65;;;1.20;;
33862;SDS011;20158;51.436;-2.742;2024-01-15T07:40:41;2.95;;;1.60;;
33862;SDS011;20158;51.436;-2.742;2024-01-15T07:43:08;2.53;;;1.30;;
33862;SDS011;20158;51.436;-2.742;2024-01-15T07:45:34;2.75;;;1.20;;
33862;SDS011;20158;51.436;-2.742;2024-01-15T07:48:00;1.25;;;1.05;;
33862;SDS011;20158;51.436;-2.742;2024-01-15T07:50:26;1.55;;;0.88;;
33862;SDS011;20158;51.436;-2.742;2024-01-15T07:52:52;1.95;;;1.27;;
33862;SDS011;20158;51.436;-2.742;2024-01-15T07:55:18;2.58;;;1.40;;
33862;SDS011;20158;51.436;-2.742;2024-01-15T07:57:45;5.05;;;1.55;;
33862;SDS011;20158;51.436;-2.742;2024-01-15T08:00:12;2.17;;;1.42;;
33862;SDS011;20158;51.436;-2.742;2024-01-15T08:02:42;2.97;;;1.30;;
33862;SDS011;20158;51.436;-2.742;2024-01-15T08:05:08;2.22;;;1.50;;
33862;SDS011;20158;51.436;-2.742;2024-01-15T08:07:35;2.65;;;1.75;;
33862;SDS011;20158;51.436;-2.742;2024-01-15T08:10:01;3.55;;;1.30;;
33862;SDS011;20158;51.436;-2.742;2024-01-15T08:12:27;4.63;;;1.65;;
33862;SDS011;20158;51.436;-2.742;2024-01-15T08:14:53;2.88;;;1.23;;
33862;SDS011;20158;51.436;-2.742;2024-01-15T08:17:19;2.38;;;1.55;;
33862;SDS011;20158;51.436;-2.742;2024-01-15T08:19:45;4.97;;;1.65;;
33862;SDS011;20158;51.436;-2.742;2024-01-15T08:22:28;2.08;;;1.65;;
33862;SDS011;20158;51.436;-2.742;2024-01-15T08:24:54;2.58;;;1.67;;
33862;SDS011;20158;51.436;-2.742;2024-01-15T08:27:20;2.90;;;1.30;;
33862;SDS011;20158;51.436;-2.742;2024-01-15T08:29:46;4.22;;;1.60;;
33862;SDS011;20158;51.436;-2.742;2024-01-15T08:32:12;5.50;;;1.90;;
33862;SDS011;20158;51.436;-2.742;2024-01-15T08:34:40;4.70;;;1.50;;
33862;SDS011;20158;51.436;-2.742;2024-01-15T08:37:07;4.95;;;1.48;;
33862;SDS011;20158;51.436;-2.742;2024-01-15T08:39:33;5.72;;;2.40;;
33862;SDS011;20158;51.436;-2.742;2024-01-15T08:41:59;5.03;;;1.75;;
33862;SDS011;20158;51.436;-2.742;2024-01-15T08:44:26;5.18;;;1.38;;
33862;SDS011;20158;51.436;-2.742;2024-01-15T08:46:52;3.92;;;1.40;;
33862;SDS011;20158;51.436;-2.742;2024-01-15T08:49:21;5.10;;;1.83;;
33862;SDS011;20158;51.436;-2.742;2024-01-15T08:51:51;2.38;;;1.65;;
33862;SDS011;20158;51.436;-2.742;2024-01-15T08:54:17;3.28;;;1.70;;
33862;SDS011;20158;51.436;-2.742;2024-01-15T08:56:43;3.00;;;1.60;;
33862;SDS011;20158;51.436;-2.742;2024-01-15T08:59:12;2.47;;;1.77;;
33862;SDS011;20158;51.436;-2.742;2024-01-15T09:01:40;2.95;;;1.40;;
33862;SDS011;20158;51.436;-2.742;2024-01-15T09:04:06;4.53;;;2.25;;
33862;SDS011;20158;51.436;-2.742;2024-01-15T09:06:33;4.32;;;2.00;;
33862;SDS011;20158;51.436;-2.742;2024-01-15T09:08:59;4.28;;;1.98;;
33862;SDS011;20158;51.436;-2.742;2024-01-15T09:11:25;3.03;;;2.35;;
33862;SDS011;20158;51.436;-2.742;2024-01-15T09:13:51;5.25;;;2.35;;
33862;SDS011;20158;51.436;-2.742;2024-01-15T09:16:17;28.08;;;10.07;;
33862;SDS011;20158;51.436;-2.742;2024-01-15T09:18:43;24.95;;;9.10;;
33862;SDS011;20158;51.436;-2.742;2024-01-15T09:21:09;16.00;;;4.70;;
33862;SDS011;20158;51.436;-2.742;2024-01-15T09:23:35;10.32;;;5.30;;
33862;SDS011;20158;51.436;-2.742;2024-01-15T09:26:01;12.75;;;4.05;;
33862;SDS011;20158;51.436;-2.742;2024-01-15T09:28:29;14.23;;;4.25;;
33862;SDS011;20158;51.436;-2.742;2024-01-15T09:30:55;8.55;;;4.07;;
33862;SDS011;20158;51.436;-2.742;2024-01-15T09:33:22;8.48;;;3.78;;
33862;SDS011;20158;51.436;-2.742;2024-01-15T09:35:48;10.05;;;3.47;;
33862;SDS011;20158;51.436;-2.742;2024-01-15T09:38:14;5.95;;;2.95;;
33862;SDS011;20158;51.436;-2.742;2024-01-15T09:40:40;7.65;;;3.63;;
33862;SDS011;20158;51.436;-2.742;2024-01-15T09:43:10;6.57;;;3.22;;
33862;SDS011;20158;51.436;-2.742;2024-01-15T09:45:38;7.65;;;3.08;;
33862;SDS011;20158;51.436;-2.742;2024-01-15T09:48:04;7.22;;;2.90;;
33862;SDS011;20158;51.436;-2.742;2024-01-15T09:50:31;5.22;;;2.65;;
33862;SDS011;20158;51.436;-2.742;2024-01-15T09:52:57;6.78;;;2.67;;
33862;SDS011;20158;51.436;-2.742;2024-01-15T09:55:24;5.93;;;2.33;;
33862;SDS011;20158;51.436;-2.742;2024-01-15T09:57:51;4.45;;;2.15;;
33862;SDS011;20158;51.436;-2.742;2024-01-15T10:00:19;5.88;;;2.05;;
33862;SDS011;20158;51.436;-2.742;2024-01-15T10:02:46;8.07;;;2.50;;
33862;SDS011;20158;51.436;-2.742;2024-01-15T10:05:12;5.32;;;2.10;;
33862;SDS011;20158;51.436;-2.742;2024-01-15T10:07:39;5.55;;;2.22;;
33862;SDS011;20158;51.436;-2.742;2024-01-15T10:10:06;4.50;;;1.80;;
33862;SDS011;20158;51.436;-2.742;2024-01-15T10:12:32;4.45;;;1.90;;
33862;SDS011;20158;51.436;-2.742;2024-01-15T10:15:00;3.92;;;1.42;;
33862;SDS011;20158;51.436;-2.742;2024-01-15T10:17:27;4.40;;;1.73;;
33862;SDS011;20158;51.436;-2.742;2024-01-15T10:19:53;4.28;;;1.45;;
33862;SDS011;20158;51.436;-2.742;2024-01-15T10:22:19;2.67;;;1.50;;
33862;SDS011;20158;51.436;-2.742;2024-01-15T10:24:45;2.47;;;1.60;;
33862;SDS011;20158;51.436;-2.742;2024-01-15T10:27:12;3.30;;;1.70;;
33862;SDS011;20158;51.436;-2.742;2024-01-15T10:29:40;3.92;;;2.20;;
33862;SDS011;20158;51.436;-2.742;2024-01-15T10:32:07;2.72;;;1.33;;
33862;SDS011;20158;51.436;-2.742;2024-01-15T10:34:39;2.72;;;1.25;;
33862;SDS011;20158;51.436;-2.742;2024-01-15T10:37:09;2.50;;;1.10;;
33862;SDS011;20158;51.436;-2.742;2024-01-15T10:39:36;2.72;;;1.00;;
33862;SDS011;20158;51.436;-2.742;2024-01-15T10:42:03;2.65;;;1.10;;
33862;SDS011;20158;51.436;-2.742;2024-01-15T10:44:30;4.38;;;1.20;;
33862;SDS011;20158;51.436;-2.742;2024-01-15T10:46:56;1.92;;;1.00;;
33862;SDS011;20158;51.436;-2.742;2024-01-15T10:49:22;3.13;;;1.10;;
33862;SDS011;20158;51.436;-2.742;2024-01-15T10:51:52;2.55;;;1.10;;
33862;SDS011;20158;51.436;-2.742;2024-01-15T10:54:19;2.42;;;0.98;;
33862;SDS011;20158;51.436;-2.742;2024-01-15T10:56:50;3.05;;;1.13;;
33862;SDS011;20158;51.436;-2.742;2024-01-15T10:59:18;5.68;;;1.65;;
33862;SDS011;20158;51.436;-2.742;2024-01-15T11:01:46;2.80;;;1.20;;
33862;SDS011;20158;51.436;-2.742;2024-01-15T11:04:14;3.40;;;1.00;;
33862;SDS011;20158;51.436;-2.742;2024-01-15T11:06:44;6.22;;;1.33;;
33862;SDS011;20158;51.436;-2.742;2024-01-15T11:09:11;2.10;;;0.82;;
33862;SDS011;20158;51.436;-2.742;2024-01-15T11:11:43;2.33;;;1.20;;
33862;SDS011;20158;51.436;-2.742;2024-01-15T11:17:26;2.08;;;0.93;;
33862;SDS011;20158;51.436;-2.742;2024-01-15T11:20:12;2.00;;;1.05;;
33862;SDS011;20158;51.436;-2.742;2024-01-15T11:22:47;6.65;;;1.42;;
33862;SDS011;20158;51.436;-2.742;2024-01-15T11:25:14;2.03;;;1.00;;
33862;SDS011;20158;51.436;-2.742;2024-01-15T11:27:42;2.33;;;0.93;;
33862;SDS011;20158;51.436;-2.742;2024-01-15T11:30:19;2.08;;;0.88;;
33862;SDS011;20158;51.436;-2.742;2024-01-15T11:32:46;0.75;;;0.50;;
33862;SDS011;20158;51.436;-2.742;2024-01-15T11:35:13;1.02;;;0.85;;
33862;SDS011;20158;51.436;-2.742;2024-01-15T11:40:23;1.02;;;0.68;;
33862;SDS011;20158;51.436;-2.742;2024-01-15T11:43:03;1.17;;;0.75;;
33862;SDS011;20158;51.436;-2.742;2024-01-15T11:45:37;2.78;;;0.85;;
33862;SDS011;20158;51.436;-2.742;2024-01-15T11:50:41;2.90;;;1.02;;
33862;SDS011;20158;51.436;-2.742;2024-01-15T11:53:13;3.13;;;0.80;;
33862;SDS011;20158;51.436;-2.742;2024-01-15T11:56:01;1.50;;;0.60;;
33862;SDS011;20158;51.436;-2.742;2024-01-15T11:58:28;1.75;;;0.57;;
33862;SDS011;20158;51.436;-2.742;2024-01-15T12:00:54;2.33;;;0.70;;
33862;SDS011;20158;51.436;-2.742;2024-01-15T12:03:21;2.28;;;0.93;;
33862;SDS011;20158;51.436;-2.742;2024-01-15T12:05:48;4.95;;;2.15;;
33862;SDS011;20158;51.436;-2.742;2024-01-15T12:08:14;4.78;;;1.13;;
33862;SDS011;20158;51.436;-2.742;2024-01-15T12:10:40;6.05;;;1.52;;
33862;SDS011;20158;51.436;-2.742;2024-01-15T12:13:09;2.65;;;1.27;;
33862;SDS011;20158;51.436;-2.742;2024-01-15T12:15:37;4.25;;;1.40;;
33862;SDS011;20158;51.436;-2.742;2024-01-15T12:18:07;4.32;;;1.10;;
33862;SDS011;20158;51.436;-2.742;2024-01-15T12:20:34;2.85;;;1.23;;
33862;SDS011;20158;51.436;-2.742;2024-01-15T12:23:02;5.28;;;1.80;;
33862;SDS011;20158;51.436;-2.742;2024-01-15T12:25:32;3.50;;;1.58;;
33862;SDS011;20158;51.436;-2.742;2024-01-15T12:27:59;5.70;;;1.58;;
33862;SDS011;20158;51.436;-2.742;2024-01-15T12:30:26;1.83;;;1.35;;
33862;SDS011;20158;51.436;-2.742;2024-01-15T12:32:54;3.28;;;0.90;;
33862;SDS011;20158;51.436;-2.742;2024-01-15T12:35:20;2.67;;;0.77;;
33862;SDS011;20158;51.436;-2.742;2024-01-15T12:37:47;1.60;;;1.02;;
33862;SDS011;20158;51.436;-2.742;2024-01-15T12:40:13;3.58;;;0.98;;
33862;SDS011;20158;51.436;-2.742;2024-01-15T12:42:44;2.22;;;0.77;;
33862;SDS011;20158;51.436;-2.742;2024-01-15T12:45:11;1.73;;;0.80;;
33862;SDS011;20158;51.436;-2.742;2024-01-15T12:47:38;1.95;;;0.98;;
33862;SDS011;20158;51.436;-2.742;2024-01-15T12:50:11;3.55;;;1.00;;
33862;SDS011;20158;51.436;-2.742;2024-01-15T12:52:41;2.85;;;0.70;;
33862;SDS011;20158;51.436;-2.742;2024-01-15T12:55:08;2.13;;;1.00;;
33862;SDS011;20158;51.436;-2.742;2024-01-15T12:57:35;5.18;;;1.00;;
33862;SDS011;20158;51.436;-2.742;2024-01-15T13:00:04;1.85;;;0.90;;
33862;SDS011;20158;51.436;-2.742;2024-01-15T13:02:38;1.38;;;0.65;;
33862;SDS011;20158;51.436;-2.742;2024-01-15T13:05:06;2.00;;;0.70;;
33862;SDS011;20158;51.436;-2.742;2024-01-15T13:07:34;0.80;;;0.40;;
33862;SDS011;20158;51.436;-2.742;2024-01-15T13:10:00;2.30;;;0.60;;
33862;SDS011;20158;51.436;-2.742;2024-01-15T13:12:26;1.73;;;0.70;;
33862;SDS011;20158;51.436;-2.742;2024-01-15T13:14:52;1.60;;;0.65;;
33862;SDS011;20158;51.436;-2.742;2024-01-15T13:17:18;2.30;;;0.80;;
33862;SDS011;20158;51.436;-2.742;2024-01-15T13:19:52;1.75;;;0.68;;
33862;SDS011;20158;51.436;-2.742;2024-01-15T13:22:21;1.27;;;0.50;;
33862;SDS011;20158;51.436;-2.742;2024-01-15T13:24:47;2.88;;;0.57;;
33862;SDS011;20158;51.436;-2.742;2024-01-15T13:27:13;1.33;;;0.55;;
33862;SDS011;20158;51.436;-2.742;2024-01-15T13:29:39;1.38;;;0.68;;
33862;SDS011;20158;51.436;-2.742;2024-01-15T13:32:05;1.83;;;0.82;;
33862;SDS011;20158;51.436;-2.742;2024-01-15T13:34:32;2.25;;;0.60;;
33862;SDS011;20158;51.436;-2.742;2024-01-15T13:36:58;1.52;;;0.50;;
33862;SDS011;20158;51.436;-2.742;2024-01-15T13:39:24;2.20;;;0.80;;
33862;SDS011;20158;51.436;-2.742;2024-01-15T13:41:50;2.35;;;1.23;;
33862;SDS011;20158;51.436;-2.742;2024-01-15T13:44:16;1.35;;;0.50;;
33862;SDS011;20158;51.436;-2.742;2024-01-15T13:46:42;1.80;;;0.65;;
33862;SDS011;20158;51.436;-2.742;2024-01-15T13:49:08;3.10;;;1.10;;
33862;SDS011;20158;51.436;-2.742;2024-01-15T13:51:36;1.20;;;0.70;;
33862;SDS011;20158;51.436;-2.742;2024-01-15T13:54:02;1.63;;;0.60;;
33862;SDS011;20158;51.436;-2.742;2024-01-15T13:56:30;6.22;;;0.82;;
33862;SDS011;20158;51.436;-2.742;2024-01-15T13:58:58;1.73;;;0.60;;
33862;SDS011;20158;51.436;-2.742;2024-01-15T14:01:25;2.15;;;0.80;;
33862;SDS011;20158;51.436;-2.742;2024-01-15T14:03:51;2.25;;;0.50;;
33862;SDS011;20158;51.436;-2.742;2024-01-15T14:06:17;2.78;;;0.85;;
33862;SDS011;20158;51.436;-2.742;2024-01-15T14:08:42;4.22;;;1.85;;
33862;SDS011;20158;51.436;-2.742;2024-01-15T14:11:08;2.90;;;1.17;;
33862;SDS011;20158;51.436;-2.742;2024-01-15T14:13:35;1.80;;;0.73;;
33862;SDS011;20158;51.436;-2.742;2024-01-15T14:16:01;3.88;;;1.13;;
33862;SDS011;20158;51.436;-2.742;2024-01-15T14:18:27;3.13;;;1.30;;
33862;SDS011;20158;51.436;-2.742;2024-01-15T14:20:53;4.28;;;0.75;;
33862;SDS011;20158;51.436;-2.742;2024-01-15T14:23:20;1.35;;;1.15;;
33862;SDS011;20158;51.436;-2.742;2024-01-15T14:25:46;3.53;;;0.90;;
33862;SDS011;20158;51.436;-2.742;2024-01-15T14:28:12;2.78;;;0.75;;
33862;SDS011;20158;51.436;-2.742;2024-01-15T14:30:39;2.10;;;0.68;;
33862;SDS011;20158;51.436;-2.742;2024-01-15T14:33:05;3.22;;;0.60;;
33862;SDS011;20158;51.436;-2.742;2024-01-15T14:35:30;4.60;;;0.98;;
33862;SDS011;20158;51.436;-2.742;2024-01-15T14:37:56;1.95;;;0.52;;
33862;SDS011;20158;51.436;-2.742;2024-01-15T14:40:24;2.30;;;0.65;;